MDT,Max TemperatureF,Mean TemperatureF,Min TemperatureF,Max Dew PointF,MeanDew PointF,Min DewpointF,Max Humidity, Mean Humidity, Min Humidity, Max Sea Level PressureIn, Mean Sea Level PressureIn, Min Sea Level PressureIn, Max VisibilityMiles, Mean VisibilityMiles, Min VisibilityMiles, Max Wind SpeedMPH, Mean Wind SpeedMPH, Max Gust SpeedMPH,PrecipitationIn, CloudCover, Events, WindDirDegrees
2012-10-1,73,58,43,38,35,29,71,43,23,30.30,30.12,29.91,10,10,10,13,7,16,0.00,0,,151
2012-10-2,82,70,44,36,28,22,65,31,11,29.88,29.77,29.64,20,10,9,13,4,,0.00,0,,151
2012-10-3,59,48,37,34,29,24,67,52,32,30.43,30.06,29.64,10,10,9,41,21,52,0.00,1,,320
2012-10-4,50,40,30,28,25,23,85,59,36,30.45,30.36,30.27,10,10,10,17,6,,0.00,5,,14
2012-10-5,48,40,34,32,27,18,87,61,32,30.38,30.32,30.26,10,10,10,24,8,28,0.00,8,,351
2012-10-6,45,34,23,23,19,12,86,58,28,30.50,30.39,30.30,10,10,10,18,9,25,0.00,3,,148
2012-10-7,55,42,28,23,19,15,67,43,23,30.29,30.15,29.99,10,10,10,9,4,,0.00,2,,131
2012-10-8,60,44,27,35,22,11,68,47,22,30.01,29.95,29.84,10,10,10,25,3,31,0.00,1,,336
2012-10-9,48,42,35,32,28,24,73,59,38,30.20,30.13,29.96,10,10,10,21,11,26,0.00,5,,281
2012-10-10,66,45,24,33,24,17,81,50,22,30.20,30.03,29.86,10,10,10,15,3,,0.00,0,,211
2012-10-11,57,46,37,35,33,28,79,63,43,30.18,30.08,29.95,10,10,10,22,11,,0.00,0,,285
2012-10-12,75,52,28,35,30,23,85,56,21,30.06,29.89,29.68,10,10,10,10,3,,0.00,0,,145
2012-10-13,68,52,37,35,32,29,76,52,25,30.12,29.89,29.74,10,10,10,21,6,26,0.00,2,,279
2012-10-14,68,51,34,33,28,25,79,48,21,30.25,30.12,30.02,10,10,9,7,3,,0.00,0,,151
2012-10-15,63,51,39,39,29,24,66,46,25,29.98,29.89,29.81,10,10,10,10,4,,0.00,2,,67
2012-10-16,70,54,39,45,36,24,77,62,31,29.83,29.60,29.36,10,10,10,28,6,39,0.02,3,Rain,348
2012-10-17,54,47,41,17,14,10,35,27,19,30.09,29.92,29.77,10,10,10,31,20,41,0.00,3,,331
2012-10-18,55,42,30,17,15,13,54,37,21,30.27,30.19,30.13,10,10,10,16,8,,0.00,0,,196
2012-10-19,57,42,27,23,18,11,61,39,24,30.14,29.94,29.73,10,10,10,6,4,,0.00,1,,125
2012-10-20,75,53,33,35,27,20,59,40,21,29.72,29.61,29.48,10,10,10,28,5,34,0.00,1,,305
2012-10-21,52,44,36,36,33,30,79,65,50,29.89,29.82,29.66,10,10,10,23,10,29,0.00,4,,304
2012-10-22,48,41,34,41,36,29,89,80,65,29.87,29.75,29.62,10,10,7,16,5,18,0.02,5,Rain,314
2012-10-23,48,42,37,42,38,28,100,81,56,29.89,29.74,29.61,10,10,6,13,5,,0.01,4,Rain,204
2012-10-24,46,38,30,28,23,13,89,60,26,30.17,30.03,29.90,10,10,10,13,8,22,0.00,2,,310
2012-10-25,35,30,21,27,22,15,80,71,61,30.51,30.26,30.17,10,8,0,16,8,18,0.00,7,Snow,320
2012-10-26,41,29,19,21,18,16,89,63,38,30.55,30.39,30.18,10,10,10,14,5,17,0.00,3,,131
2012-10-27,48,38,28,22,20,18,72,52,32,30.17,30.12,30.06,10,10,10,7,3,,0.00,5,,111
2012-10-28,59,44,32,29,25,20,61,47,30,30.05,29.98,29.90,10,10,10,9,4,,0.00,3,,153
2012-10-29,66,52,39,35,32,29,70,53,30,30.04,29.98,29.92,10,10,10,8,3,,0.00,2,,137
2012-10-30,66,47,28,33,29,24,85,56,26,30.15,30.07,30.00,10,10,10,9,2,16,0.00,0,,149
2012-10-31,70,49,28,29,25,18,70,46,19,30.16,30.06,29.96,10,10,10,7,2,,0.00,0,,116